Bargas, Spain
Current Conditions -  °F | °C
As of 9:00 PM on Friday 21 Nov 2014 (Local Time) from LEGT Reporting Station
Clear Clear  
Wind Chill: 52°   Ceiling: Unl
Heat Index: 52°   Visibility: 6mi
Dew Point: 48°   Wind: 0mph
Humidity: 88%   Direction: NA
Pressure: 30.03"   Gusts: NA
Location:  39.94°N, 4.02°W
Report Text: LEGT 212000Z 00000KT CAVOK 11/09 Q1017
Loading
Personal Weather Stations






























Interactive Weather Map New forecast layout! Learn more

10-Day Weather Forecast

Advertisements
Track Severe Weather on mobile